Thursday, January 17, 2019, 6:02 AM EST
Back to Local

KBDL, Bradley International Airport

Location: Windsor Locks, CT, United States Lat: 41.933
Local Time: 6:02 AM EST (11:02 GMT) Lon: -72.683
Time Zone: US/Eastern Elev: 173 ft

Show me the last for .
Show Decoded

2019-01-17 04:51 METAR KBDL 170951Z 32014KT 10SM SCT250 M07/M17 A3031 RMK AO2 SLP267 T10671167 =
2019-01-17 03:51 METAR KBDL 170851Z 30013KT 10SM FEW250 M06/M15 A3031 RMK AO2 SLP264 T10611150
                 51031 =
2019-01-17 02:51 METAR KBDL 170751Z 30019KT 10SM CLR M05/M13 A3028 RMK AO2 SLP254 T10501133 =
2019-01-17 01:51 METAR KBDL 170651Z 31015G20KT 10SM FEW035 M04/M13 A3026 RMK AO2 SLP247 T10391128
                 =
2019-01-17 00:51 METAR KBDL 170551Z 31012G19KT 10SM FEW040 M03/M12 A3021 RMK AO2 SLP233 60000
                 T10331117 10022 21039 51024 =
2019-01-16 23:51 METAR KBDL 170451Z 30010KT 10SM FEW042 FEW250 M03/M12 A3021 RMK AO2 SLP232
                 T10331117 400441067 =
2019-01-16 22:51 METAR KBDL 170351Z 32012KT 10SM FEW045 FEW250 M02/M12 A3018 RMK AO2 SLP220
                 T10221117 =
2019-01-16 21:51 METAR KBDL 170251Z 32013G19KT 10SM FEW040 FEW250 M01/M12 A3014 RMK AO2 SLP208
                 60000 T10111117 53037 =
2019-01-16 20:51 METAR KBDL 170151Z 33014G22KT 10SM FEW040 FEW055 00/M09 A3011 RMK AO2 SNB18E36
                 SLP196 P0000 T00001094 =
2019-01-16 19:51 METAR KBDL 170051Z 32012G18KT 10SM SCT038 BKN050 BKN065 02/M06 A3007 RMK AO2
                 SLP183 T00171056 =
2019-01-16 18:51 METAR KBDL 162351Z 22004KT 10SM BKN050 BKN070 01/M06 A3003 RMK AO2 SLP171
                 T00111061 10044 20011 53021 =
2019-01-16 17:51 METAR KBDL 162251Z VRB06KT 10SM OVC060 02/M06 A3000 RMK AO2 SLP161 BINOVC
                 T00221061 =
2019-01-16 16:51 METAR KBDL 162151Z 21006KT 10SM BKN045 BKN065 BKN250 02/M06 A2998 RMK AO2 SLP154
                 T00221061 =
2019-01-16 15:51 METAR KBDL 162051Z 22009KT 10SM FEW045 BKN060 BKN250 03/M07 A2997 RMK AO2 SLP150
                 VIRGA N-E AND S T00281067 51005 =
2019-01-16 14:51 METAR KBDL 161951Z 24008KT 10SM FEW045 BKN050 03/M06 A2997 RMK AO2 SLP149
                 T00281061 =
2019-01-16 13:51 METAR KBDL 161851Z 26010KT 10SM OVC042 02/M06 A2996 RMK AO2 SLP148 BINOVC
                 T00221056 =
2019-01-16 12:51 METAR KBDL 161751Z 22007KT 10SM BKN038 BKN045 BKN250 01/M06 A2995 RMK AO2 SLP145
                 T00111056 10017 21056 58018 =
2019-01-16 11:51 METAR KBDL 161651Z 18008KT 10SM BKN038 01/M06 A2997 RMK AO2 SLP152 T00061056 =
2019-01-16 10:51 METAR KBDL 161551Z 19006KT 10SM OVC034 M01/M06 A3000 RMK AO2 SLP161 T10061061 =
2019-01-16 09:51 METAR KBDL 161451Z 18007KT 10SM OVC034 M02/M07 A3001 RMK AO2 SLP162 T10171067
                 53002 =
2019-01-16 08:51 METAR KBDL 161351Z 17007KT 9SM FEW028 BKN036 M03/M07 A3000 RMK AO2 SLP160
                 T10281067 =
2019-01-16 07:51 METAR KBDL 161251Z 16007KT 9SM FEW026 SCT250 M04/M07 A2999 RMK AO2 SLP159
                 T10441072 =
2019-01-16 06:51 METAR KBDL 161151Z 19006KT 10SM FEW060 M05/M08 A3000 RMK AO2 SLP161 T10501083
                 11028 21067 55003 =

Support USWX by starting your Amazon purchase here.